createdAt,value
2023-03-06T00:01:38.767Z,53.01
2023-03-06T00:04:41.368Z,53.26
2023-03-06T00:07:44.075Z,52.40
2023-03-06T00:10:46.781Z,52.18
2023-03-06T00:13:49.192Z,52.09
2023-03-06T00:16:56.005Z,51.96
2023-03-06T00:19:58.330Z,52.28
2023-03-06T00:23:01.304Z,52.09
2023-03-06T00:26:07.403Z,51.26
2023-03-06T00:29:10.270Z,51.62
2023-03-06T00:32:12.552Z,51.50
2023-03-06T00:35:18.182Z,52.09
2023-03-06T00:38:20.764Z,51.65
2023-03-06T00:41:25.044Z,51.88
2023-03-06T00:44:27.559Z,52.68
2023-03-06T00:47:30.219Z,52.33
2023-03-06T00:50:35.217Z,52.64
2023-03-06T00:53:38.002Z,52.85
2023-03-06T00:56:40.311Z,52.77
2023-03-06T00:59:43.291Z,52.97
2023-03-06T01:02:45.624Z,53.26
2023-03-06T01:05:48.737Z,52.87
2023-03-06T01:08:51.196Z,53.47
2023-03-06T01:11:53.973Z,53.22
2023-03-06T01:14:56.281Z,52.67
2023-03-06T01:17:59.026Z,53.08
2023-03-06T01:21:01.813Z,53.15
2023-03-06T01:24:04.646Z,53.19
2023-03-06T01:27:06.950Z,52.91
2023-03-06T01:30:10.509Z,52.98
2023-03-06T01:33:13.122Z,52.88
2023-03-06T01:36:16.002Z,53.19
2023-03-06T01:39:18.311Z,52.67
2023-03-06T01:42:22.116Z,53.45
2023-03-06T01:45:24.681Z,52.86
2023-03-06T01:48:27.441Z,53.04
2023-03-06T01:51:35.889Z,52.85
2023-03-06T01:54:49.580Z,53.09
2023-03-06T01:57:57.670Z,52.84
2023-03-06T02:01:00.350Z,52.49
2023-03-06T02:04:03.062Z,52.84
2023-03-06T02:07:06.245Z,52.45
2023-03-06T02:10:10.245Z,53.23
2023-03-06T02:13:12.758Z,52.38
2023-03-06T02:16:17.658Z,52.19
2023-03-06T02:19:56.793Z,52.00
2023-03-06T02:23:53.013Z,52.10
2023-03-06T02:26:57.386Z,51.68
2023-03-06T02:29:59.568Z,51.42
2023-03-06T02:33:03.419Z,51.35
2023-03-06T02:36:10.220Z,52.16
2023-03-06T02:39:14.627Z,51.43
2023-03-06T02:42:22.416Z,51.27
2023-03-06T02:45:39.197Z,51.25
2023-03-06T02:48:41.705Z,51.26
2023-03-06T02:51:44.594Z,51.39
2023-03-06T02:54:47.445Z,51.42
2023-03-06T02:57:51.111Z,52.23
2023-03-06T03:00:54.013Z,51.26
2023-03-06T03:03:56.749Z,51.34
2023-03-06T03:06:59.618Z,51.31
2023-03-06T03:10:02.360Z,51.86
2023-03-06T03:13:05.207Z,51.26
2023-03-06T03:16:11.750Z,51.31
2023-03-06T03:19:14.706Z,51.63
2023-03-06T03:22:18.946Z,51.33
2023-03-06T03:25:22.682Z,51.46
2023-03-06T03:28:25.689Z,51.29
2023-03-06T03:31:28.387Z,51.44
2023-03-06T03:34:31.180Z,51.66
2023-03-06T03:37:34.762Z,51.58
2023-03-06T03:40:38.730Z,51.76
2023-03-06T03:43:42.237Z,51.50
2023-03-06T03:46:45.083Z,51.48
2023-03-06T03:49:47.961Z,51.36
2023-03-06T03:52:50.949Z,51.99
2023-03-06T03:55:53.478Z,51.46
2023-03-06T03:58:56.465Z,51.61
2023-03-06T04:01:59.490Z,52.09
2023-03-06T04:05:02.526Z,51.65
2023-03-06T04:08:05.559Z,51.91
2023-03-06T04:11:08.588Z,52.67
2023-03-06T04:14:11.057Z,51.97
2023-03-06T04:17:14.121Z,52.79
2023-03-06T04:20:16.996Z,51.92
2023-03-06T04:23:20.527Z,52.08
2023-03-06T04:26:23.089Z,52.22
2023-03-06T04:29:25.909Z,52.42
2023-03-06T04:32:28.450Z,52.56
2023-03-06T04:35:32.240Z,53.56
2023-03-06T04:38:34.895Z,52.89
2023-03-06T04:41:41.341Z,53.06
2023-03-06T04:44:43.928Z,52.95
2023-03-06T04:47:46.515Z,53.05
2023-03-06T04:50:48.911Z,53.05
2023-03-06T04:53:52.307Z,54.09
2023-03-06T04:56:54.828Z,54.27
2023-03-06T04:59:57.530Z,53.94
2023-03-06T05:03:01.338Z,53.71
2023-03-06T05:06:03.881Z,54.39
2023-03-06T05:09:06.121Z,55.15
2023-03-06T05:12:08.762Z,55.29
2023-03-06T05:15:12.680Z,55.26
2023-03-06T05:18:15.316Z,54.89
2023-03-06T05:21:17.668Z,56.14
2023-03-06T05:24:20.629Z,56.26
2023-03-06T05:27:22.949Z,56.09
2023-03-06T05:30:26.047Z,54.78
2023-03-06T05:33:28.354Z,54.86
2023-03-06T05:36:30.966Z,54.77
2023-03-06T05:39:33.474Z,54.51
2023-03-06T05:42:36.083Z,55.03
2023-03-06T05:45:39.498Z,54.90
2023-03-06T05:48:42.147Z,55.77
2023-03-06T05:51:44.484Z,56.78
2023-03-06T05:54:50.910Z,55.49
2023-03-06T05:57:54.147Z,56.31
2023-03-06T06:00:57.308Z,56.01
2023-03-06T06:03:59.894Z,56.40
2023-03-06T06:07:02.287Z,55.84
2023-03-06T06:10:06.403Z,55.92
2023-03-06T06:13:09.125Z,56.36
2023-03-06T06:16:16.399Z,56.06
2023-03-06T06:19:20.219Z,55.61
2023-03-06T06:22:23.474Z,55.88
2023-03-06T06:25:25.816Z,56.51
2023-03-06T06:28:29.486Z,55.71
2023-03-06T06:31:32.097Z,55.94
2023-03-06T06:34:34.903Z,55.66
2023-03-06T06:37:37.829Z,55.74
2023-03-06T06:40:40.703Z,55.92
2023-03-06T06:43:43.082Z,55.86
2023-03-06T06:50:12.483Z,56.81
2023-03-06T06:53:15.074Z,56.36
2023-03-06T06:56:17.457Z,56.25
2023-03-06T06:59:20.600Z,56.41
2023-03-06T07:02:23.216Z,56.81
2023-03-06T07:05:26.294Z,56.80
2023-03-06T07:08:28.731Z,56.94
2023-03-06T07:11:31.838Z,56.82
2023-03-06T07:14:34.465Z,56.99
2023-03-06T07:17:37.104Z,56.48
2023-03-06T07:20:39.522Z,56.54
2023-03-06T07:23:42.148Z,56.52
2023-03-06T07:26:48.377Z,56.46
2023-03-06T07:29:53.716Z,56.54
2023-03-06T07:32:57.760Z,56.36
2023-03-06T07:36:00.479Z,57.18
2023-03-06T07:39:02.890Z,57.24
2023-03-06T07:42:07.591Z,59.00
2023-03-06T07:45:12.298Z,59.50
2023-03-06T07:48:15.031Z,59.01
2023-03-06T07:51:20.231Z,58.81
2023-03-06T07:54:22.883Z,59.64
2023-03-06T07:57:25.357Z,59.63
2023-03-06T08:00:28.122Z,60.50
2023-03-06T08:03:30.812Z,59.73
2023-03-06T08:06:33.445Z,60.47
2023-03-06T08:09:36.222Z,61.20
2023-03-06T08:12:38.558Z,60.61
2023-03-06T08:15:41.344Z,60.87
2023-03-06T08:18:45.835Z,61.56
2023-03-06T08:21:49.148Z,61.53
2023-03-06T08:24:55.228Z,61.15
2023-03-06T08:27:57.897Z,62.14
2023-03-06T08:31:27.488Z,62.23
2023-03-06T08:34:30.275Z,61.90
2023-03-06T08:37:32.609Z,62.88
2023-03-06T08:40:35.540Z,61.79
2023-03-06T08:43:37.954Z,61.55
2023-03-06T08:46:41.014Z,61.65
2023-03-06T08:49:43.411Z,61.92
2023-03-06T08:52:47.343Z,61.67
2023-03-06T08:55:49.724Z,61.66
2023-03-06T08:58:53.464Z,61.33
2023-03-06T09:01:56.140Z,60.28
2023-03-06T09:05:01.293Z,60.22
2023-03-06T09:08:08.829Z,59.71
2023-03-06T09:11:41.032Z,60.63
2023-03-06T09:14:50.728Z,59.58
2023-03-06T09:18:02.410Z,58.96
2023-03-06T09:21:17.304Z,57.94
2023-03-06T09:24:22.384Z,57.25
2023-03-06T09:27:25.307Z,56.30
2023-03-06T09:30:28.454Z,56.39
2023-03-06T09:33:32.758Z,56.51
2023-03-06T09:36:49.306Z,55.98
2023-03-06T09:40:00.232Z,53.51
2023-03-06T09:43:05.188Z,51.30
2023-03-06T09:46:20.142Z,49.52
2023-03-06T09:49:40.905Z,47.90
2023-03-06T09:53:10.451Z,46.71
2023-03-06T09:56:20.445Z,45.81
2023-03-06T09:59:25.429Z,46.24
2023-03-06T10:02:37.202Z,46.38
2023-03-06T10:05:44.714Z,46.48
2023-03-06T10:08:58.218Z,47.59
2023-03-06T10:12:08.933Z,47.90
2023-03-06T10:15:21.964Z,48.50
2023-03-06T10:18:24.733Z,49.33
2023-03-06T10:21:56.372Z,49.81
2023-03-06T10:25:10.903Z,50.38
2023-03-06T10:28:18.264Z,50.34
2023-03-06T10:31:25.188Z,50.34
2023-03-06T10:34:42.737Z,51.15
2023-03-06T10:37:51.938Z,51.55
2023-03-06T10:41:12.854Z,51.82
2023-03-06T10:44:15.371Z,51.76
2023-03-06T10:47:31.128Z,52.02
2023-03-06T10:50:34.662Z,52.81
2023-03-06T10:54:08.553Z,53.06
2023-03-06T10:57:23.967Z,52.90
2023-03-06T11:00:36.068Z,52.82
2023-03-06T11:03:48.617Z,53.34
2023-03-06T11:07:17.741Z,54.11
2023-03-06T11:10:20.620Z,53.62
2023-03-06T11:17:32.080Z,53.64
2023-03-06T11:20:51.916Z,52.88
2023-03-06T11:24:02.330Z,52.78
2023-03-06T11:27:25.494Z,52.67
2023-03-06T11:30:37.608Z,52.71
2023-03-06T11:33:55.863Z,52.99
2023-03-06T11:37:01.353Z,52.26
2023-03-06T11:40:42.342Z,51.94
2023-03-06T11:44:13.498Z,52.32
2023-03-06T11:47:15.990Z,52.60
2023-03-06T11:50:34.706Z,52.39
2023-03-06T11:53:42.215Z,51.84
2023-03-06T11:56:59.675Z,52.48
2023-03-06T12:00:29.746Z,52.12
2023-03-06T12:03:57.933Z,51.40
2023-03-06T12:07:07.846Z,52.24
2023-03-06T12:10:27.824Z,52.72
2023-03-06T12:14:08.592Z,52.09
2023-03-06T12:17:31.891Z,51.65
2023-03-06T12:21:03.703Z,51.26
2023-03-06T12:24:27.026Z,51.27
2023-03-06T12:27:48.640Z,51.37
2023-03-06T12:31:18.752Z,52.34
2023-03-06T12:34:28.507Z,51.36
2023-03-06T12:38:02.160Z,51.54
2023-03-06T12:41:22.891Z,52.37
2023-03-06T12:44:49.902Z,52.12
2023-03-06T12:47:56.564Z,51.06
2023-03-06T12:50:59.829Z,51.88
2023-03-06T12:54:03.247Z,51.49
2023-03-06T12:57:08.589Z,51.94
2023-03-06T13:00:32.530Z,52.16
2023-03-06T13:04:13.836Z,52.23
2023-03-06T13:07:21.146Z,52.70
2023-03-06T13:10:26.979Z,52.76
2023-03-06T13:13:34.137Z,54.40
2023-03-06T13:16:38.650Z,53.88
2023-03-06T13:19:41.291Z,54.54
2023-03-06T13:22:46.209Z,54.54
2023-03-06T13:25:50.801Z,55.08
2023-03-06T13:28:55.511Z,54.66
2023-03-06T13:32:00.940Z,54.85
2023-03-06T13:35:29.677Z,54.95
2023-03-06T13:38:45.016Z,55.85
2023-03-06T13:41:58.438Z,55.76
2023-03-06T13:45:30.275Z,55.87
2023-03-06T13:48:45.318Z,56.20
2023-03-06T13:51:54.410Z,55.80
2023-03-06T13:55:24.806Z,55.68
2023-03-06T13:58:58.686Z,56.27
2023-03-06T14:02:22.538Z,55.97
2023-03-06T14:05:34.745Z,56.23
2023-03-06T14:08:40.991Z,56.11
2023-03-06T14:11:50.691Z,56.84
2023-03-06T14:14:57.252Z,56.42
2023-03-06T14:18:07.697Z,57.07
2023-03-06T14:21:15.957Z,57.13
2023-03-06T14:24:26.860Z,57.06
2023-03-06T14:27:49.452Z,57.27
2023-03-06T14:30:53.964Z,57.30
2023-03-06T14:34:01.729Z,57.35
2023-03-06T14:37:07.708Z,57.48
2023-03-06T14:40:11.515Z,58.39
2023-03-06T14:43:24.639Z,57.84
2023-03-06T14:46:27.006Z,58.08
2023-03-06T14:49:29.740Z,58.22
2023-03-06T14:52:32.853Z,58.18
2023-03-06T14:55:36.126Z,58.99
2023-03-06T14:58:54.967Z,58.85
2023-03-06T15:02:04.285Z,58.61
2023-03-06T15:05:19.619Z,58.87
2023-03-06T15:08:30.389Z,59.12
2023-03-06T15:12:04.912Z,59.20
2023-03-06T15:15:08.119Z,59.04
2023-03-06T15:18:29.723Z,59.49
2023-03-06T15:21:38.073Z,59.22
2023-03-06T15:24:40.574Z,59.34
2023-03-06T15:27:53.379Z,59.51
2023-03-06T15:31:20.895Z,59.14
2023-03-06T15:34:23.924Z,59.13
2023-03-06T15:37:28.787Z,59.31
2023-03-06T15:40:31.968Z,59.47
2023-03-06T15:43:40.240Z,59.72
2023-03-06T15:46:42.857Z,59.97
2023-03-06T15:49:45.618Z,59.97
2023-03-06T15:52:49.691Z,59.74
2023-03-06T15:55:52.748Z,60.31
2023-03-06T15:58:57.899Z,60.24
2023-03-06T16:02:04.339Z,60.17
2023-03-06T16:05:15.706Z,60.42
2023-03-06T16:08:18.168Z,61.33
2023-03-06T16:11:32.486Z,60.80
2023-03-06T16:14:37.937Z,60.82
2023-03-06T16:17:40.604Z,60.55
2023-03-06T16:20:43.199Z,60.74
2023-03-06T16:23:47.254Z,61.32
2023-03-06T16:26:51.857Z,61.03
2023-03-06T16:29:55.607Z,61.62
2023-03-06T16:32:58.784Z,61.62
2023-03-06T16:36:02.844Z,61.81
2023-03-06T16:39:05.661Z,61.88
2023-03-06T16:42:09.328Z,62.24
2023-03-06T16:45:11.900Z,61.83
2023-03-06T16:48:16.779Z,61.98
2023-03-06T16:51:24.904Z,62.19
2023-03-06T16:54:27.624Z,61.98
2023-03-06T16:57:36.688Z,62.12
2023-03-06T17:00:40.601Z,62.32
2023-03-06T17:03:43.076Z,62.23
2023-03-06T17:06:46.326Z,62.43
2023-03-06T17:09:48.643Z,62.26
2023-03-06T17:12:51.238Z,62.16
2023-03-06T17:15:56.914Z,62.81
2023-03-06T17:19:00.956Z,62.58
2023-03-06T17:22:05.841Z,62.88
2023-03-06T17:25:09.352Z,62.89
2023-03-06T17:28:11.997Z,63.10
2023-03-06T17:31:20.863Z,63.08
2023-03-06T17:34:24.630Z,63.24
2023-03-06T17:37:27.551Z,63.16
2023-03-06T17:40:29.986Z,63.09
2023-03-06T17:43:33.693Z,63.26
2023-03-06T17:46:36.072Z,63.18
2023-03-06T17:49:41.056Z,63.29
2023-03-06T17:52:43.528Z,63.20
2023-03-06T17:55:46.168Z,63.14
2023-03-06T17:58:48.507Z,63.29
2023-03-06T18:01:53.123Z,63.26
2023-03-06T18:04:57.593Z,63.07
2023-03-06T18:08:01.234Z,63.31
2023-03-06T18:11:05.066Z,63.22
2023-03-06T18:14:07.415Z,63.22
2023-03-06T18:17:10.062Z,62.99
2023-03-06T18:20:13.158Z,63.30
2023-03-06T18:23:15.824Z,63.36
2023-03-06T18:26:19.515Z,63.35
2023-03-06T18:29:22.623Z,63.01
2023-03-06T18:32:24.875Z,63.09
2023-03-06T18:35:27.718Z,63.04
2023-03-06T18:38:30.078Z,63.42
2023-03-06T18:41:32.896Z,63.52
2023-03-06T18:44:35.183Z,63.28
2023-03-06T18:47:37.835Z,63.62
2023-03-06T18:50:40.119Z,63.78
2023-03-06T18:53:43.693Z,64.16
2023-03-06T18:56:46.097Z,64.23
2023-03-06T18:59:50.086Z,64.54
2023-03-06T19:02:52.475Z,64.62
2023-03-06T19:05:55.493Z,65.28
2023-03-06T19:09:02.222Z,65.91
2023-03-06T19:12:05.799Z,65.90
2023-03-06T19:15:08.813Z,65.63
2023-03-06T19:18:16.822Z,65.76
2023-03-06T19:21:22.079Z,66.17
2023-03-06T19:24:24.839Z,66.12
2023-03-06T19:27:27.246Z,66.27
2023-03-06T19:30:29.975Z,66.28
2023-03-06T19:33:32.292Z,67.20
2023-03-06T19:36:34.954Z,67.21
2023-03-06T19:39:37.309Z,66.86
2023-03-06T19:42:40.008Z,66.68
2023-03-06T19:45:44.028Z,66.66
2023-03-06T19:48:46.998Z,67.03
2023-03-06T19:51:49.440Z,66.87
2023-03-06T19:54:52.889Z,66.90
2023-03-06T19:57:55.253Z,66.59
2023-03-06T20:01:06.911Z,67.09
2023-03-06T20:04:09.777Z,66.75
2023-03-06T20:07:12.605Z,66.89
2023-03-06T20:10:15.393Z,66.76
2023-03-06T20:13:17.791Z,66.93
2023-03-06T20:16:20.743Z,66.56
2023-03-06T20:19:23.094Z,66.94
2023-03-06T20:22:26.058Z,67.42
2023-03-06T20:25:28.815Z,67.41
2023-03-06T20:28:32.455Z,67.46
2023-03-06T20:31:35.450Z,67.15
2023-03-06T20:34:39.442Z,66.69
2023-03-06T20:37:41.850Z,66.71
2023-03-06T20:40:44.816Z,66.72
2023-03-06T20:43:47.774Z,66.57
2023-03-06T20:46:52.023Z,67.30
2023-03-06T20:49:54.287Z,66.94
2023-03-06T20:52:58.454Z,66.67
2023-03-06T20:56:00.976Z,66.60
2023-03-06T20:59:03.798Z,66.89
2023-03-06T21:02:06.567Z,67.48
2023-03-06T21:05:09.597Z,66.88
2023-03-06T21:08:12.012Z,67.42
2023-03-06T21:11:16.156Z,67.09
2023-03-06T21:14:18.536Z,67.26
2023-03-06T21:17:21.260Z,67.00
2023-03-06T21:20:24.123Z,67.56
2023-03-06T21:23:26.751Z,67.68
2023-03-06T21:26:33.732Z,67.65
2023-03-06T21:29:36.532Z,67.49
2023-03-06T21:32:39.127Z,67.65
2023-03-06T21:35:43.839Z,67.78
2023-03-06T21:38:47.772Z,68.09
2023-03-06T21:41:50.448Z,68.31
2023-03-06T21:44:52.809Z,68.40
2023-03-06T21:47:59.101Z,68.28
2023-03-06T21:51:10.694Z,68.16
2023-03-06T21:54:13.328Z,67.71
2023-03-06T21:57:15.883Z,67.70
2023-03-06T22:00:19.597Z,68.29
2023-03-06T22:03:22.341Z,68.84
2023-03-06T22:06:26.982Z,68.18
2023-03-06T22:09:29.751Z,68.36
2023-03-06T22:12:34.412Z,68.16
2023-03-06T22:15:37.056Z,67.78
2023-03-06T22:18:39.490Z,67.76
2023-03-06T22:21:42.128Z,67.70
2023-03-06T22:24:44.473Z,67.84
2023-03-06T22:27:47.101Z,67.96
2023-03-06T22:30:49.479Z,67.57
2023-03-06T22:33:53.324Z,67.92
2023-03-06T22:36:55.810Z,67.66
2023-03-06T22:39:58.397Z,68.12
2023-03-06T22:43:00.910Z,68.01
2023-03-06T22:46:06.450Z,67.95
2023-03-06T22:49:10.757Z,67.90
2023-03-06T22:52:15.197Z,68.09
2023-03-06T22:55:18.706Z,67.93
2023-03-06T22:58:21.624Z,68.08
2023-03-06T23:01:26.653Z,67.92
2023-03-06T23:04:29.917Z,68.22
2023-03-06T23:07:32.331Z,68.24
2023-03-06T23:10:39.545Z,68.20
2023-03-06T23:14:02.985Z,68.07
2023-03-06T23:17:24.169Z,68.34
2023-03-06T23:20:45.049Z,68.48
2023-03-06T23:24:06.979Z,68.52
2023-03-06T23:27:09.611Z,68.52
2023-03-06T23:30:12.569Z,68.79
2023-03-06T23:33:15.210Z,68.88
2023-03-06T23:36:18.589Z,68.73
2023-03-06T23:39:21.193Z,68.98
2023-03-06T23:42:23.779Z,69.24
2023-03-06T23:45:27.377Z,69.00
2023-03-06T23:48:29.954Z,69.24
2023-03-06T23:51:32.598Z,68.91
2023-03-06T23:54:35.824Z,68.85
2023-03-06T23:57:38.430Z,68.84
